Time;durP1;ratioP1;P1;durP2;ratioP2;P2;SDS_P1;SDS_P2;PMS_P1;PMS_P2;Temp;Humidity;BMP_temperature;BMP_pressure;BME280_temperature;BME280_humidity;BME280_pressure;Samples;Min_cycle;Max_cycle;Signal;HPM_P1;HPM_P2
2023/09/11 00:03:35;;;;;;;23.10;18.80;;;;;;;16.51;82.70;98884.79;225808;1277;22567;-74
2023/09/11 00:08:37;;;;;;;20.90;18.70;;;;;;;16.48;82.83;98882.73;225849;1276;22553;-74
2023/09/11 00:13:40;;;;;;;19.70;17.80;;;;;;;16.44;82.88;98881.69;226143;1278;22564;-75
2023/09/11 00:18:42;;;;;;;19.40;17.50;;;;;;;16.40;83.19;98876.52;226168;1256;22558;-75
2023/09/11 00:23:45;;;;;;;24.00;18.50;;;;;;;16.39;83.24;98874.23;226157;1278;22541;-75
2023/09/11 00:28:47;;;;;;;20.10;18.00;;;;;;;16.40;83.62;98872.75;226149;1277;22524;-75
2023/09/11 00:33:49;;;;;;;19.70;17.50;;;;;;;16.37;83.51;98868.88;226175;1275;22554;-75
2023/09/11 00:38:51;;;;;;;19.60;17.40;;;;;;;16.32;83.56;98868.33;226162;1280;22691;-75
2023/09/11 00:43:53;;;;;;;19.20;17.40;;;;;;;16.28;83.52;98864.86;225957;1278;22539;-76
2023/09/11 00:48:56;;;;;;;18.30;16.50;;;;;;;16.24;83.56;98859.59;226158;1272;22660;-76
2023/09/11 00:53:58;;;;;;;20.50;16.90;;;;;;;16.19;83.55;98859.15;226179;1280;22573;-74
2023/09/11 00:59:01;;;;;;;18.50;16.60;;;;;;;16.16;83.64;98853.79;226255;1277;25387;-76
2023/09/11 01:04:04;;;;;;;17.40;15.70;;;;;;;16.13;83.82;98852.95;226154;1275;22737;-75
2023/09/11 01:09:06;;;;;;;17.00;15.30;;;;;;;16.14;83.85;98850.78;226210;1280;22684;-75
2023/09/11 01:14:08;;;;;;;17.40;15.20;;;;;;;16.15;84.08;98852.20;226183;1276;22568;-74
2023/09/11 01:19:28;;;;;;;17.30;15.40;;;;;;;16.17;84.15;98852.42;226157;1277;22525;-75
2023/09/11 01:24:50;;;;;;;17.50;15.70;;;;;;;16.20;84.44;98850.90;226146;1280;25230;-75
2023/09/11 01:29:52;;;;;;;18.20;16.40;;;;;;;16.21;84.39;98851.21;226166;1277;23120;-75
2023/09/11 01:34:54;;;;;;;18.20;16.30;;;;;;;16.21;84.14;98847.52;226058;1278;149564;-75
2023/09/11 01:39:56;;;;;;;17.70;15.90;;;;;;;16.18;84.11;98843.80;226160;1280;22490;-75
2023/09/11 01:44:59;;;;;;;19.50;16.10;;;;;;;16.11;83.95;98839.52;226167;1277;22548;-75
2023/09/11 01:50:02;;;;;;;18.20;16.30;;;;;;;16.05;84.08;98839.74;225904;1280;22548;-75
2023/09/11 01:55:05;;;;;;;18.40;16.50;;;;;;;15.99;83.95;98840.69;226226;1276;22557;-75
2023/09/11 02:00:08;;;;;;;18.10;16.30;;;;;;;15.92;84.12;98838.45;226132;1278;22560;-75
2023/09/11 02:05:13;;;;;;;18.60;16.30;;;;;;;15.86;83.97;98840.15;225897;1280;22558;-75
2023/09/11 02:10:14;;;;;;;18.20;16.10;;;;;;;15.80;84.00;98841.67;226163;1268;22660;-76
2023/09/11 02:15:16;;;;;;;18.20;15.80;;;;;;;15.75;84.27;98840.30;225941;1278;22564;-75
2023/09/11 02:20:18;;;;;;;18.90;16.00;;;;;;;15.72;84.17;98840.27;226163;1278;22582;-75
2023/09/11 02:25:20;;;;;;;16.80;15.10;;;;;;;15.70;84.26;98838.64;226077;1280;22543;-74
2023/09/11 02:30:23;;;;;;;17.50;15.80;;;;;;;15.67;84.37;98835.88;225958;1278;22548;-76
2023/09/11 02:35:25;;;;;;;17.50;15.70;;;;;;;15.64;84.28;98838.93;225900;1278;22542;-75
2023/09/11 02:40:27;;;;;;;20.00;16.40;;;;;;;15.61;84.37;98838.83;225955;1278;22548;-73
2023/09/11 02:45:29;;;;;;;18.40;16.50;;;;;;;15.58;84.54;98839.97;226101;1278;22536;-75
2023/09/11 02:50:31;;;;;;;16.60;14.90;;;;;;;15.56;84.51;98837.90;226157;1277;22573;-74
2023/09/11 02:55:34;;;;;;;17.00;15.00;;;;;;;15.56;84.62;98833.08;226160;1273;22564;-74
2023/09/11 03:00:36;;;;;;;18.10;15.80;;;;;;;15.54;84.57;98834.45;226188;1276;22583;-75
2023/09/11 03:05:38;;;;;;;16.50;14.90;;;;;;;15.53;84.57;98830.56;226146;1278;22537;-74
2023/09/11 03:10:40;;;;;;;17.20;15.40;;;;;;;15.51;84.83;98831.35;225963;1278;22559;-75
2023/09/11 03:15:45;;;;;;;17.00;15.30;;;;;;;15.48;84.83;98830.52;226190;1279;22527;-74
2023/09/11 03:20:54;;;;;;;19.20;17.10;;;;;;;15.46;84.70;98832.45;225957;1280;23011;-75
2023/09/11 03:25:56;;;;;;;18.30;16.40;;;;;;;15.43;84.68;98826.20;226199;1276;22536;-75
2023/09/11 03:31:02;;;;;;;17.90;15.90;;;;;;;15.40;84.73;98822.16;225951;1280;22580;-75
2023/09/11 03:36:05;;;;;;;17.90;16.00;;;;;;;15.37;84.72;98823.73;226116;1280;22729;-74
2023/09/11 03:41:07;;;;;;;16.20;14.60;;;;;;;15.35;85.03;98822.69;226164;1277;22571;-75
2023/09/11 03:46:12;;;;;;;17.70;15.00;;;;;;;15.31;84.89;98818.41;226147;1261;22548;-75
2023/09/11 03:51:15;;;;;;;17.70;14.90;;;;;;;15.30;84.96;98817.67;225935;1278;22584;-75
2023/09/11 03:56:17;;;;;;;17.60;15.60;;;;;;;15.28;84.92;98816.07;225948;1278;22544;-76
2023/09/11 04:01:20;;;;;;;16.80;15.00;;;;;;;15.26;85.20;98812.29;225950;1278;22532;-74
2023/09/11 04:06:22;;;;;;;18.10;16.20;;;;;;;15.24;85.06;98810.50;226186;1278;22552;-74
2023/09/11 04:11:24;;;;;;;18.20;16.20;;;;;;;15.21;84.92;98809.62;226142;1276;24183;-74
2023/09/11 04:16:26;;;;;;;18.60;16.70;;;;;;;15.18;85.00;98807.13;225964;1278;22544;-75
2023/09/11 04:21:28;;;;;;;16.80;15.20;;;;;;;15.15;85.22;98810.33;226109;1276;25307;-75
2023/09/11 04:26:30;;;;;;;17.20;15.50;;;;;;;15.14;85.11;98813.80;226163;1276;22559;-75
2023/09/11 04:31:32;;;;;;;20.00;16.40;;;;;;;15.13;85.28;98809.11;225904;1280;25932;-74
2023/09/11 04:36:35;;;;;;;22.20;15.00;;;;;;;15.13;85.61;98808.09;226174;1278;22541;-74
2023/09/11 04:41:37;;;;;;;20.70;16.80;;;;;;;15.13;85.34;98805.83;225977;1278;22570;-74
2023/09/11 04:46:39;;;;;;;22.00;15.80;;;;;;;15.15;85.29;98801.77;226164;1277;22744;-75
2023/09/11 04:51:41;;;;;;;16.30;14.40;;;;;;;15.19;85.15;98798.15;226133;1278;25330;-75
2023/09/11 04:56:43;;;;;;;17.80;16.00;;;;;;;15.22;85.44;98798.91;226168;1276;22547;-74
2023/09/11 05:01:45;;;;;;;16.60;14.90;;;;;;;15.30;85.46;98803.19;226149;1278;22523;-74
2023/09/11 05:06:47;;;;;;;17.90;15.90;;;;;;;15.38;85.38;98800.88;226221;1280;22553;-74
2023/09/11 05:11:49;;;;;;;16.10;14.50;;;;;;;15.48;85.35;98803.92;225930;1279;22544;-74
2023/09/11 05:16:51;;;;;;;16.00;14.40;;;;;;;15.58;85.19;98801.98;225920;1278;22563;-75
2023/09/11 05:21:53;;;;;;;17.90;15.80;;;;;;;15.70;85.21;98803.42;225964;1278;22543;-75
2023/09/11 05:26:55;;;;;;;14.50;13.00;;;;;;;15.83;85.17;98801.61;226174;1278;22574;-74
2023/09/11 05:31:57;;;;;;;14.00;12.30;;;;;;;15.96;84.86;98799.14;225959;1279;22559;-74
2023/09/11 05:36:59;;;;;;;27.60;13.20;;;;;;;16.10;84.91;98798.36;226019;1280;22640;-74
2023/09/11 05:42:00;;;;;;;13.20;11.80;;;;;;;16.24;84.63;98801.92;226245;1278;22556;-74
2023/09/11 05:47:03;;;;;;;13.20;11.80;;;;;;;16.39;84.56;98802.02;225859;1266;22540;-76
2023/09/11 05:52:06;;;;;;;16.30;12.50;;;;;;;16.55;84.47;98800.54;225643;1269;25396;-73
2023/09/11 05:57:08;;;;;;;14.10;12.70;;;;;;;16.73;84.20;98800.08;225749;1277;23276;-75
2023/09/11 06:02:10;;;;;;;14.20;12.50;;;;;;;16.90;84.00;98796.79;225522;1265;22552;-77
2023/09/11 06:07:12;;;;;;;12.80;11.40;;;;;;;17.09;83.71;98797.48;225533;1263;22664;-76
2023/09/11 06:12:14;;;;;;;13.90;11.60;;;;;;;17.29;83.53;98796.36;225677;1260;23007;-73
2023/09/11 06:17:16;;;;;;;14.70;12.10;;;;;;;17.49;83.19;98792.13;225565;1269;24335;-75
2023/09/11 06:22:23;;;;;;;14.50;11.00;;;;;;;17.69;82.86;98790.20;225527;1268;22650;-73
2023/09/11 06:27:25;;;;;;;16.10;14.10;;;;;;;17.87;82.52;98787.04;225675;1262;24301;-74
2023/09/11 06:32:27;;;;;;;13.60;11.20;;;;;;;18.08;82.21;98788.73;225602;1267;22591;-73
2023/09/11 06:37:30;;;;;;;13.60;10.90;;;;;;;18.28;81.97;98786.80;225422;1261;22556;-72
2023/09/11 06:42:34;;;;;;;17.00;11.60;;;;;;;18.48;81.59;98787.83;225482;1269;22681;-72
2023/09/11 06:47:36;;;;;;;14.40;10.80;;;;;;;18.67;81.36;98790.64;225438;1268;22563;-73
2023/09/11 06:52:40;;;;;;;24.40;11.10;;;;;;;18.89;81.21;98790.11;225359;1267;22543;-76
2023/09/11 06:57:56;;;;;;;13.70;11.40;;;;;;;19.09;80.83;98791.05;225249;1262;25204;-76
2023/09/11 07:02:58;;;;;;;21.80;11.50;;;;;;;19.32;80.63;98794.15;225378;1276;22569;-75
2023/09/11 07:08:00;;;;;;;15.40;10.60;;;;;;;19.53;80.38;98788.43;225193;1262;22529;-76
2023/09/11 07:13:02;;;;;;;17.40;10.90;;;;;;;19.76;80.23;98788.98;225334;1265;22530;-76
2023/09/11 07:18:04;;;;;;;46.10;13.40;;;;;;;19.99;79.78;98795.79;225567;1270;22737;-75
2023/09/11 07:23:06;;;;;;;40.20;12.10;;;;;;;20.23;79.46;98793.56;225689;1261;26688;-75
2023/09/11 07:28:08;;;;;;;14.50;10.20;;;;;;;20.47;79.30;98794.53;225612;1265;22640;-72
2023/09/11 07:33:10;;;;;;;16.60;10.20;;;;;;;20.73;78.91;98793.23;225607;1268;22637;-72
2023/09/11 07:38:12;;;;;;;15.50;9.70;;;;;;;20.98;78.53;98785.85;225703;1263;22566;-72
2023/09/11 07:43:14;;;;;;;14.70;8.80;;;;;;;21.23;78.11;98787.27;225541;1270;22588;-72
2023/09/11 07:48:17;;;;;;;23.90;11.40;;;;;;;21.49;77.63;98784.73;225642;1269;22552;-74
2023/09/11 07:53:19;;;;;;;13.50;10.20;;;;;;;21.71;76.73;98781.38;225426;1275;22551;-73
2023/09/11 07:58:21;;;;;;;18.20;9.90;;;;;;;21.91;76.29;98776.27;225236;1280;25291;-73
2023/09/11 08:03:23;;;;;;;52.50;13.90;;;;;;;22.11;75.74;98778.27;225385;1278;22572;-73
2023/09/11 08:08:26;;;;;;;24.90;11.40;;;;;;;22.31;75.11;98781.64;225324;1267;22556;-74
2023/09/11 08:13:28;;;;;;;29.90;10.70;;;;;;;22.49;74.75;98776.47;225426;1281;22548;-74
2023/09/11 08:18:30;;;;;;;40.70;12.50;;;;;;;22.71;74.37;98777.49;225201;1280;22637;-74
2023/09/11 08:23:32;;;;;;;18.60;10.00;;;;;;;22.89;73.58;98778.89;225370;1280;22567;-73
2023/09/11 08:28:35;;;;;;;15.50;10.60;;;;;;;23.08;73.45;98775.23;225413;1277;22548;-73
2023/09/11 08:33:37;;;;;;;24.80;12.50;;;;;;;23.29;73.22;98774.42;225574;1278;23008;-73
2023/09/11 08:38:55;;;;;;;18.20;11.30;;;;;;;23.51;72.96;98772.55;225745;1276;22540;-74
2023/09/11 08:43:57;;;;;;;19.20;10.90;;;;;;;23.73;72.74;98775.96;225464;1275;22565;-73
2023/09/11 08:49:02;;;;;;;18.70;11.10;;;;;;;23.96;72.26;98775.63;225532;1279;22577;-73
2023/09/11 08:54:09;;;;;;;13.60;10.70;;;;;;;24.16;71.62;98778.85;225689;1257;24346;-75
2023/09/11 08:59:15;;;;;;;12.80;9.80;;;;;;;24.31;70.59;98779.63;225767;1280;22543;-74
2023/09/11 09:04:18;;;;;;;12.30;10.50;;;;;;;24.45;70.18;98779.71;225757;1276;22578;-74
2023/09/11 09:09:21;;;;;;;12.40;10.40;;;;;;;24.60;69.53;98776.77;225735;1276;24888;-74
2023/09/11 09:14:27;;;;;;;13.10;11.00;;;;;;;24.73;68.61;98775.40;225549;1280;22726;-74
2023/09/11 09:19:29;;;;;;;11.20;9.90;;;;;;;24.83;68.56;98771.20;225391;1260;22536;-74
2023/09/11 09:24:35;;;;;;;11.60;10.10;;;;;;;25.03;68.59;98766.66;225637;1273;22683;-72
2023/09/11 09:29:39;;;;;;;12.80;10.70;;;;;;;25.25;68.68;98764.32;225717;1260;22563;-72
2023/09/11 09:34:53;;;;;;;13.20;11.20;;;;;;;25.46;68.16;98763.52;225482;1273;24412;-73
2023/09/11 09:39:55;;;;;;;14.20;10.80;;;;;;;25.64;67.68;98755.63;225627;1260;22934;-76
2023/09/11 09:44:58;;;;;;;12.80;10.10;;;;;;;25.80;67.04;98749.08;225524;1270;22579;-76
2023/09/11 09:50:00;;;;;;;11.90;10.80;;;;;;;25.94;66.40;98744.96;225508;1270;22660;-78
2023/09/11 09:55:03;;;;;;;11.00;10.00;;;;;;;26.06;65.97;98743.30;225617;1276;22564;-76
2023/09/11 10:00:06;;;;;;;10.60;9.70;;;;;;;26.14;64.74;98737.67;225422;1273;22544;-76
2023/09/11 10:05:08;;;;;;;10.80;9.70;;;;;;;26.23;64.58;98732.25;225531;1276;22547;-76
2023/09/11 10:10:24;;;;;;;10.70;9.20;;;;;;;26.40;63.79;98726.84;225510;1276;24407;-76
2023/09/11 10:15:26;;;;;;;9.80;8.80;;;;;;;26.60;63.82;98724.70;225656;1273;22540;-76
2023/09/11 10:20:29;;;;;;;10.50;9.50;;;;;;;26.81;62.95;98720.98;225602;1264;22582;-73
2023/09/11 10:25:37;;;;;;;10.40;9.00;;;;;;;26.97;62.98;98709.98;225949;1274;24221;-74
2023/09/11 10:30:52;;;;;;;12.60;10.50;;;;;;;27.15;62.58;98708.67;225830;1276;25393;-75
2023/09/11 10:36:13;;;;;;;10.30;8.70;;;;;;;27.31;61.28;98701.88;225858;1273;22547;-75
2023/09/11 10:41:16;;;;;;;9.80;8.90;;;;;;;27.37;60.50;98702.24;225666;1269;22543;-74
2023/09/11 10:46:21;;;;;;;9.80;8.80;;;;;;;27.48;60.50;98693.41;225732;1274;22663;-73
2023/09/11 10:51:23;;;;;;;9.30;8.40;;;;;;;27.63;60.38;98689.35;225830;1274;22558;-72
2023/09/11 10:56:25;;;;;;;16.80;9.80;;;;;;;27.78;59.95;98684.06;225617;1277;24310;-72
2023/09/11 11:01:27;;;;;;;9.60;8.60;;;;;;;27.89;59.28;98679.98;225591;1279;22585;-72
2023/09/11 11:06:31;;;;;;;9.60;8.70;;;;;;;27.98;58.82;98682.00;225551;1273;22551;-72
2023/09/11 11:11:33;;;;;;;9.80;8.90;;;;;;;28.04;58.26;98678.73;225470;1280;22730;-72
2023/09/11 11:16:39;;;;;;;9.80;9.00;;;;;;;28.04;57.32;98673.31;225561;1272;22952;-73
2023/09/11 11:21:42;;;;;;;9.40;8.50;;;;;;;28.12;57.35;98669.77;225359;1273;22568;-72
2023/09/11 11:26:44;;;;;;;9.20;8.30;;;;;;;28.21;57.66;98664.34;225377;1280;22538;-74
2023/09/11 11:31:50;;;;;;;9.70;8.90;;;;;;;28.36;57.40;98662.98;225579;1276;22561;-75
2023/09/11 11:36:54;;;;;;;10.10;8.90;;;;;;;28.43;56.44;98661.58;225681;1276;22554;-74
2023/09/11 11:41:56;;;;;;;9.80;8.80;;;;;;;28.44;55.91;98656.02;225591;1273;25253;-75
2023/09/11 11:46:59;;;;;;;10.40;8.40;;;;;;;28.48;55.83;98653.68;225389;1276;23047;-75
2023/09/11 11:52:03;;;;;;;9.30;8.50;;;;;;;28.61;55.37;98658.10;225211;1276;22742;-72
2023/09/11 11:57:05;;;;;;;10.50;8.30;;;;;;;28.67;54.78;98656.05;225275;1273;22595;-74
2023/09/11 12:02:21;;;;;;;9.40;8.60;;;;;;;28.67;53.88;98647.67;225177;1264;22555;-74
2023/09/11 12:07:25;;;;;;;9.20;8.40;;;;;;;28.66;54.85;98646.73;225131;1273;22664;-72
2023/09/11 12:12:27;;;;;;;9.00;7.90;;;;;;;28.76;54.57;98644.41;225031;1258;22575;-74
2023/09/11 12:17:29;;;;;;;9.20;8.30;;;;;;;28.87;54.67;98638.77;225315;1266;22578;-75
2023/09/11 12:22:31;;;;;;;8.90;8.10;;;;;;;28.92;53.76;98642.33;225393;1268;25312;-74
2023/09/11 12:27:34;;;;;;;8.90;8.10;;;;;;;29.14;53.65;98637.57;225308;1257;22557;-75
2023/09/11 12:32:38;;;;;;;10.90;8.60;;;;;;;29.19;53.45;98632.66;225404;1265;22551;-74
2023/09/11 12:37:40;;;;;;;9.40;8.50;;;;;;;29.06;52.17;98631.04;225603;1269;23071;-75
2023/09/11 12:42:42;;;;;;;8.70;7.90;;;;;;;29.04;53.02;98629.08;225505;1257;23009;-75
2023/09/11 12:47:44;;;;;;;12.90;11.80;;;;;;;29.26;53.28;98624.79;225518;1265;22550;-74
2023/09/11 12:52:46;;;;;;;9.20;7.70;;;;;;;29.59;52.67;98620.05;225274;1257;23265;-75
2023/09/11 12:57:49;;;;;;;8.60;7.80;;;;;;;29.77;51.32;98616.92;225381;1267;22548;-75
2023/09/11 13:02:55;;;;;;;9.10;8.20;;;;;;;29.90;51.83;98617.68;225524;1259;24372;-75
2023/09/11 13:07:58;;;;;;;8.50;7.90;;;;;;;30.02;52.10;98605.02;225543;1258;25323;-75
2023/09/11 13:13:00;;;;;;;9.00;8.10;;;;;;;30.12;51.96;98599.04;225515;1273;22554;-75
2023/09/11 13:18:03;;;;;;;8.60;7.80;;;;;;;30.18;51.78;98601.38;225377;1260;22639;-74
2023/09/11 13:23:05;;;;;;;8.60;7.80;;;;;;;30.06;51.14;98599.00;225370;1259;22548;-75
2023/09/11 13:28:07;;;;;;;8.50;7.70;;;;;;;29.92;51.53;98597.59;225470;1276;22574;-74
2023/09/11 13:33:09;;;;;;;8.50;7.70;;;;;;;29.80;51.37;98595.48;225351;1259;22637;-75
2023/09/11 13:38:11;;;;;;;9.60;8.80;;;;;;;29.58;51.49;98589.05;225196;1268;165675;-77
2023/09/11 13:43:14;;;;;;;8.60;7.90;;;;;;;29.63;52.01;98580.72;225430;1278;22539;-74
2023/09/11 13:48:16;;;;;;;9.00;8.10;;;;;;;29.76;51.61;98576.95;225383;1273;22580;-71
2023/09/11 13:53:18;;;;;;;8.60;7.90;;;;;;;29.94;51.81;98575.29;225481;1265;24297;-72
2023/09/11 13:58:20;;;;;;;9.30;8.50;;;;;;;30.09;51.30;98569.26;225454;1265;22775;-73
2023/09/11 14:03:22;;;;;;;306.10;276.30;;;;;;;30.19;51.67;98560.87;225313;1268;23047;-73
2023/09/11 14:08:24;;;;;;;21.80;19.70;;;;;;;30.28;51.74;98560.48;225481;1275;22610;-74
2023/09/11 14:13:26;;;;;;;10.10;8.90;;;;;;;30.20;51.39;98556.77;225566;1278;23019;-73
2023/09/11 14:18:28;;;;;;;9.30;8.20;;;;;;;30.14;51.49;98553.09;225669;1268;22555;-73
2023/09/11 14:23:30;;;;;;;11.20;9.10;;;;;;;30.04;51.37;98548.73;225674;1276;22543;-74
2023/09/11 14:28:32;;;;;;;10.30;9.30;;;;;;;29.89;51.53;98545.16;225657;1278;22547;-73
2023/09/11 14:33:34;;;;;;;9.30;8.60;;;;;;;29.83;51.78;98536.87;225770;1280;22557;-74
2023/09/11 14:38:36;;;;;;;9.00;8.20;;;;;;;29.80;51.32;98542.52;226064;1280;22561;-73
2023/09/11 14:43:38;;;;;;;8.50;7.80;;;;;;;29.73;51.74;98538.91;225962;1277;22552;-74
2023/09/11 14:48:40;;;;;;;8.40;7.60;;;;;;;29.70;51.26;98533.65;225938;1276;22543;-74
2023/09/11 14:53:43;;;;;;;8.90;8.00;;;;;;;29.70;51.36;98533.27;226034;1273;22542;-74
2023/09/11 14:58:45;;;;;;;8.90;8.00;;;;;;;29.77;51.46;98526.75;226007;1278;26012;-73
2023/09/11 15:03:47;;;;;;;8.40;7.60;;;;;;;29.79;51.21;98528.88;226018;1277;22527;-74
2023/09/11 15:08:49;;;;;;;8.50;7.70;;;;;;;29.71;51.16;98526.92;226057;1275;22546;-74
2023/09/11 15:13:51;;;;;;;9.00;7.80;;;;;;;29.49;51.06;98523.16;225989;1280;22569;-74
2023/09/11 15:18:55;;;;;;;8.00;7.30;;;;;;;29.34;51.66;98521.45;226091;1280;22530;-74
2023/09/11 15:24:02;;;;;;;8.60;7.80;;;;;;;29.19;51.60;98518.36;226101;1278;22542;-74
2023/09/11 15:29:05;;;;;;;10.20;7.80;;;;;;;29.05;52.18;98517.23;226062;1280;22575;-74
2023/09/11 15:34:10;;;;;;;8.50;7.90;;;;;;;28.95;52.00;98520.02;226114;1276;22560;-74
2023/09/11 15:39:12;;;;;;;8.50;7.80;;;;;;;28.95;52.33;98519.23;226061;1278;25250;-75
2023/09/11 15:44:15;;;;;;;8.40;7.70;;;;;;;28.98;51.97;98519.54;226081;1275;22542;-75
2023/09/11 15:49:17;;;;;;;8.50;7.70;;;;;;;29.03;52.59;98522.54;226073;1276;22536;-74
2023/09/11 15:54:19;;;;;;;9.40;8.10;;;;;;;29.02;52.37;98524.81;225923;1278;22638;-74
2023/09/11 15:59:21;;;;;;;8.30;7.60;;;;;;;28.88;52.47;98524.75;226067;1268;22560;-74
2023/09/11 16:04:23;;;;;;;9.10;8.30;;;;;;;28.71;52.92;98522.09;226080;1280;25482;-74
2023/09/11 16:09:25;;;;;;;9.20;8.40;;;;;;;28.53;53.58;98517.20;226092;1278;22536;-74
2023/09/11 16:14:30;;;;;;;10.60;9.50;;;;;;;28.29;53.96;98521.51;226055;1277;22593;-74
2023/09/11 16:19:32;;;;;;;10.70;9.70;;;;;;;28.04;54.15;98524.11;226075;1278;22604;-74
2023/09/11 16:24:34;;;;;;;13.20;12.00;;;;;;;27.77;54.49;98524.89;226074;1276;25382;-73
2023/09/11 16:29:35;;;;;;;12.70;11.60;;;;;;;27.52;54.97;98523.05;226101;1280;22539;-74
2023/09/11 16:34:37;;;;;;;14.50;13.20;;;;;;;27.28;55.56;98527.13;226045;1280;23198;-74
2023/09/11 16:39:40;;;;;;;13.10;11.10;;;;;;;26.99;56.25;98528.63;226046;1276;22661;-74
2023/09/11 16:44:44;;;;;;;11.50;10.40;;;;;;;26.69;56.74;98523.42;226085;1276;22600;-74
2023/09/11 16:49:46;;;;;;;11.50;10.30;;;;;;;26.39;57.32;98523.58;226104;1276;24214;-74
2023/09/11 16:54:48;;;;;;;11.00;10.00;;;;;;;26.15;57.70;98526.02;225946;1280;22552;-73
2023/09/11 16:59:50;;;;;;;11.40;10.30;;;;;;;25.93;57.97;98523.06;225944;1280;22553;-73
2023/09/11 17:04:52;;;;;;;12.40;11.10;;;;;;;25.72;58.14;98523.92;226070;1275;25228;-74
2023/09/11 17:09:55;;;;;;;11.50;10.50;;;;;;;25.50;58.51;98525.70;226118;1280;22536;-74
2023/09/11 17:14:58;;;;;;;11.60;10.30;;;;;;;25.29;58.78;98526.58;226078;1280;22648;-74
2023/09/11 17:20:00;;;;;;;12.40;11.10;;;;;;;25.08;59.33;98525.44;226159;1276;22563;-73
2023/09/11 17:25:02;;;;;;;13.10;10.40;;;;;;;24.88;59.63;98530.07;226136;1280;22554;-73
2023/09/11 17:30:05;;;;;;;12.50;10.80;;;;;;;24.70;60.05;98531.83;226161;1280;22584;-73
2023/09/11 17:35:07;;;;;;;13.10;11.90;;;;;;;24.48;60.60;98534.84;226082;1276;22560;-73
2023/09/11 17:40:10;;;;;;;15.10;13.50;;;;;;;24.23;61.30;98539.31;226133;1272;22589;-73
2023/09/11 17:45:12;;;;;;;13.30;11.90;;;;;;;23.98;61.86;98543.33;226118;1278;23253;-73
2023/09/11 17:50:15;;;;;;;15.10;13.60;;;;;;;23.75;62.33;98542.02;226111;1280;22600;-73
2023/09/11 17:55:16;;;;;;;16.00;14.30;;;;;;;23.52;62.86;98549.52;226091;1276;25227;-73
2023/09/11 18:00:19;;;;;;;15.70;13.80;;;;;;;23.30;63.48;98550.16;226144;1277;22549;-72
2023/09/11 18:05:21;;;;;;;16.00;14.40;;;;;;;23.10;64.07;98554.64;226063;1277;22550;-74
2023/09/11 18:10:23;;;;;;;30.60;25.90;;;;;;;22.92;64.75;98559.87;226178;1275;22654;-75
2023/09/11 18:15:25;;;;;;;32.40;27.40;;;;;;;22.76;65.19;98563.34;226108;1275;22568;-74
2023/09/11 18:20:27;;;;;;;19.80;16.00;;;;;;;22.60;65.67;98564.00;226155;1276;22553;-74
2023/09/11 18:25:30;;;;;;;16.10;13.90;;;;;;;22.46;66.08;98567.57;225943;1278;25399;-73
2023/09/11 18:30:33;;;;;;;18.10;13.90;;;;;;;22.34;66.72;98570.47;226169;1280;22559;-73
2023/09/11 18:35:35;;;;;;;22.00;15.30;;;;;;;22.22;67.18;98573.92;226028;1278;22691;-73
2023/09/11 18:40:37;;;;;;;20.00;15.30;;;;;;;22.10;67.65;98572.98;225972;1278;22549;-73
2023/09/11 18:45:38;;;;;;;16.40;14.50;;;;;;;21.99;67.90;98577.32;225947;1278;22550;-73
2023/09/11 18:50:42;;;;;;;19.10;15.80;;;;;;;21.87;68.24;98576.37;226155;1276;22539;-73
2023/09/11 18:55:48;;;;;;;18.60;15.00;;;;;;;21.75;68.73;98579.95;225987;1278;22541;-74
2023/09/11 19:00:49;;;;;;;17.30;15.10;;;;;;;21.64;69.07;98584.39;226231;1276;22536;-74
2023/09/11 19:05:53;;;;;;;16.70;14.60;;;;;;;21.54;69.55;98581.34;226139;1276;22597;-73
2023/09/11 19:10:55;;;;;;;20.50;15.60;;;;;;;21.45;69.82;98587.65;226204;1276;22564;-74
2023/09/11 19:15:59;;;;;;;18.00;13.80;;;;;;;21.38;70.25;98584.13;226208;1272;22552;-73
2023/09/11 19:21:01;;;;;;;21.00;14.70;;;;;;;21.29;70.50;98578.48;226013;1278;22968;-73
2023/09/11 19:26:04;;;;;;;20.50;14.40;;;;;;;21.20;70.88;98578.77;226144;1276;22561;-73
2023/09/11 19:31:06;;;;;;;14.60;13.20;;;;;;;21.09;71.05;98574.98;226147;1276;23740;-73
2023/09/11 19:36:08;;;;;;;17.20;14.60;;;;;;;20.96;71.45;98571.75;225974;1278;22545;-73
2023/09/11 19:41:11;;;;;;;17.50;13.80;;;;;;;20.80;71.72;98573.10;226160;1275;22547;-72
2023/09/11 19:46:12;;;;;;;14.80;12.90;;;;;;;20.68;72.11;98573.08;226120;1277;22563;-73
2023/09/11 19:51:15;;;;;;;21.60;13.30;;;;;;;20.56;72.63;98570.30;226218;1278;22540;-73
2023/09/11 19:56:19;;;;;;;16.70;14.40;;;;;;;20.43;72.97;98572.63;226216;1276;22570;-74
2023/09/11 20:01:21;;;;;;;17.00;15.20;;;;;;;20.33;73.61;98576.02;226194;1275;25279;-73
2023/09/11 20:06:23;;;;;;;16.40;14.90;;;;;;;20.23;74.11;98581.33;225939;1278;22542;-73
2023/09/11 20:11:26;;;;;;;18.50;15.70;;;;;;;20.14;74.46;98578.48;226127;1277;22710;-74
2023/09/11 20:16:28;;;;;;;18.30;16.30;;;;;;;20.04;74.79;98573.92;225981;1278;22542;-74
2023/09/11 20:21:30;;;;;;;18.20;16.30;;;;;;;19.96;75.12;98575.61;226142;1280;22560;-73
2023/09/11 20:26:32;;;;;;;19.60;15.30;;;;;;;19.87;75.43;98573.11;226197;1276;22635;-74
2023/09/11 20:31:34;;;;;;;18.30;15.70;;;;;;;19.77;75.69;98570.81;226041;1256;22550;-73
2023/09/11 20:36:36;;;;;;;17.00;15.10;;;;;;;19.68;75.86;98568.24;226189;1276;22548;-73
2023/09/11 20:41:38;;;;;;;19.50;16.90;;;;;;;19.59;76.17;98569.98;226024;1278;24239;-74
2023/09/11 20:46:40;;;;;;;19.00;17.10;;;;;;;19.52;76.66;98576.00;226201;1280;22575;-73
2023/09/11 20:51:42;;;;;;;19.30;17.40;;;;;;;19.43;77.02;98572.66;226173;1278;22555;-74
2023/09/11 20:56:44;;;;;;;17.90;16.20;;;;;;;19.33;77.21;98574.24;225965;1278;22558;-73
2023/09/11 21:01:46;;;;;;;19.20;17.20;;;;;;;19.23;77.41;98578.58;226105;1280;22485;-73
2023/09/11 21:06:48;;;;;;;21.10;18.80;;;;;;;19.15;77.75;98580.23;226108;1272;25565;-73
2023/09/11 21:11:53;;;;;;;19.80;17.80;;;;;;;19.08;77.99;98579.45;226176;1280;22586;-73
2023/09/11 21:16:55;;;;;;;20.40;18.30;;;;;;;19.02;78.21;98581.45;226186;1280;22539;-73
2023/09/11 21:21:57;;;;;;;20.20;18.20;;;;;;;18.96;78.52;98580.96;226096;1278;25424;-73
2023/09/11 21:26:59;;;;;;;21.60;18.70;;;;;;;18.91;78.75;98579.48;226130;1280;22545;-73
2023/09/11 21:32:02;;;;;;;20.40;18.20;;;;;;;18.86;79.04;98580.70;225931;1278;22685;-72
2023/09/11 21:37:04;;;;;;;20.80;18.80;;;;;;;18.80;79.29;98578.42;225971;1278;22647;-73
2023/09/11 21:42:06;;;;;;;20.90;18.80;;;;;;;18.74;79.40;98579.56;226017;1278;25421;-73
2023/09/11 21:47:08;;;;;;;19.90;17.80;;;;;;;18.68;79.64;98577.77;225790;1280;23294;-74
2023/09/11 21:52:10;;;;;;;20.20;18.00;;;;;;;18.58;79.77;98580.80;225897;1271;22546;-73
2023/09/11 21:57:12;;;;;;;22.40;19.00;;;;;;;18.50;79.99;98576.45;226177;1278;22547;-73
2023/09/11 22:02:15;;;;;;;22.50;20.20;;;;;;;18.43;80.11;98577.60;226195;1276;22971;-74
2023/09/11 22:07:17;;;;;;;23.20;20.80;;;;;;;18.36;80.33;98573.92;225967;1278;22536;-74
2023/09/11 22:12:19;;;;;;;21.80;19.60;;;;;;;18.28;80.65;98574.58;226170;1280;22539;-73
2023/09/11 22:17:21;;;;;;;25.10;22.50;;;;;;;18.19;80.99;98571.98;226154;1278;22586;-73
2023/09/11 22:22:23;;;;;;;25.40;22.00;;;;;;;18.12;81.20;98572.17;225937;1258;22559;-73
2023/09/11 22:27:25;;;;;;;25.00;22.40;;;;;;;18.06;81.33;98571.29;225978;1280;25958;-73
2023/09/11 22:32:27;;;;;;;25.40;22.60;;;;;;;18.01;81.46;98575.77;226170;1276;22559;-73
2023/09/11 22:37:38;;;;;;;23.60;21.20;;;;;;;17.94;81.48;98575.56;226172;1278;22579;-73
2023/09/11 22:42:40;;;;;;;24.80;22.10;;;;;;;17.87;81.54;98569.05;226205;1276;22543;-73
2023/09/11 22:47:42;;;;;;;26.90;23.00;;;;;;;17.80;81.64;98569.42;226164;1276;22548;-75
2023/09/11 22:52:44;;;;;;;25.70;22.70;;;;;;;17.75;81.68;98574.63;226207;1276;25253;-74
2023/09/11 22:57:46;;;;;;;25.80;23.00;;;;;;;17.71;81.91;98568.54;225928;1280;22583;-72
2023/09/11 23:02:48;;;;;;;26.00;23.20;;;;;;;17.68;82.03;98566.55;226173;1277;22555;-73